Souda — SVBH5 — position and weather

sailwx.info

Track history (hours):
 
Tides and Currents Weather Stations Pressure Air Temp Water Temp Dewpoint Dewpoint Depression Visibility Wind Speed Wind Dir Waves Ship Positions

Souda

Last reported at 2015-Mar-27 13:32 UTC. Time now 2015-Mar-28 12:17 UTC.
Position N 37°34' E 023°42'.

Length 88 m; draft 6.6 m.

Type: Tanker. MMSI: 241109000.

Date/timePositionNaut miles runAvg speedWind from/ knotsBaromVisibWave heightAir tempDewpointWater temp
2015-Mar-27 13:32N 37°34' E 023°42'7 7.6
2015-Mar-27 12:33N 37°40' E 023°38'8 7.6
2015-Mar-27 11:33N 37°47' E 023°34'8 7.9
2015-Mar-27 10:33N 37°50' E 023°25'10 8.2
2015-Mar-27 09:21N 37°53' E 023°13'  
2015-Mar-22 18:12N 37°52' E 023°18'6 9.1
2015-Mar-22 17:34N 37°51' E 023°25'9 8.9
2015-Mar-22 16:33N 37°51' E 023°37'8 8.3
2015-Mar-22 15:33N 37°44' E 023°43'  
2015-Mar-20 04:24N 37°39' E 023°43'7 8.3
2015-Mar-20 03:31N 37°45' E 023°39'7 7.4
2015-Mar-20 02:33N 37°50' E 023°32'11 0.5
2015-Mar-19 05:25N 37°52' E 023°19'8 8.9
2015-Mar-19 04:33N 37°50' E 023°28'9 8.6
2015-Mar-19 03:33N 37°50' E 023°39'9 8.6
2015-Mar-19 02:33N 37°43' E 023°44'  
Track history (hours):
 
Tides and Currents Weather Stations Pressure Air Temp Water Temp Dewpoint Dewpoint Depression Visibility Wind Speed Wind Dir Waves Ship Positions

Souda

Last reported at 2015-Mar-27 13:32 UTC. Time now 2015-Mar-28 12:17 UTC.
Position N 37°34' E 023°42'.

Length 88 m; draft 6.6 m.

Type: Tanker. MMSI: 241109000.

Date/timePositionNaut miles runAvg speedWind from/ knotsBaromVisibWave heightAir tempDewpointWater temp
2015-Mar-27 13:32N 37°34' E 023°42'7 7.6
2015-Mar-27 12:33N 37°40' E 023°38'8 7.6
2015-Mar-27 11:33N 37°47' E 023°34'8 7.9
2015-Mar-27 10:33N 37°50' E 023°25'10 8.2
2015-Mar-27 09:21N 37°53' E 023°13'  
2015-Mar-22 18:12N 37°52' E 023°18'6 9.1
2015-Mar-22 17:34N 37°51' E 023°25'9 8.9
2015-Mar-22 16:33N 37°51' E 023°37'8 8.3
2015-Mar-22 15:33N 37°44' E 023°43'  
2015-Mar-20 04:24N 37°39' E 023°43'7 8.3
2015-Mar-20 03:31N 37°45' E 023°39'7 7.4
2015-Mar-20 02:33N 37°50' E 023°32'11 0.5
2015-Mar-19 05:25N 37°52' E 023°19'8 8.9
2015-Mar-19 04:33N 37°50' E 023°28'9 8.6
2015-Mar-19 03:33N 37°50' E 023°39'9 8.6
2015-Mar-19 02:33N 37°43' E 023°44'  

Dump ship's entire track history